createdAt,value
2017-11-06T00:01:44.225Z,5.90
2017-11-06T00:04:12.363Z,5.90
2017-11-06T00:06:41.463Z,5.90
2017-11-06T00:09:09.632Z,5.90
2017-11-06T00:11:37.768Z,5.90
2017-11-06T00:14:05.893Z,5.90
2017-11-06T00:16:34.791Z,5.90
2017-11-06T00:19:03.684Z,5.90
2017-11-06T00:21:31.854Z,5.90
2017-11-06T00:23:59.984Z,5.90
2017-11-06T00:26:28.110Z,5.90
2017-11-06T00:28:56.238Z,5.90
2017-11-06T00:31:24.361Z,5.90
2017-11-06T00:33:52.502Z,5.90
2017-11-06T00:36:21.395Z,5.90
2017-11-06T00:38:50.284Z,5.90
2017-11-06T00:41:19.180Z,5.90
2017-11-06T00:43:48.074Z,5.90
2017-11-06T00:46:16.968Z,5.90
2017-11-06T00:48:45.111Z,5.90
2017-11-06T00:51:13.217Z,5.90
2017-11-06T00:53:41.362Z,5.90
2017-11-06T00:56:10.280Z,5.90
2017-11-06T00:58:39.183Z,5.90
2017-11-06T01:01:07.299Z,5.90
2017-11-06T01:03:35.435Z,5.90
2017-11-06T01:06:03.581Z,5.90
2017-11-06T01:08:31.699Z,5.90
2017-11-06T01:10:59.843Z,5.80
2017-11-06T01:13:27.963Z,5.90
2017-11-06T01:15:56.102Z,5.90
2017-11-06T01:18:24.280Z,5.90
2017-11-06T01:20:52.412Z,5.90
2017-11-06T01:23:20.577Z,6.00
2017-11-06T01:25:49.472Z,6.00
2017-11-06T01:28:18.371Z,6.00
2017-11-06T01:30:46.500Z,6.00
2017-11-06T01:33:14.660Z,6.00
2017-11-06T01:35:42.809Z,6.10
2017-11-06T01:38:11.690Z,6.10
2017-11-06T01:40:39.818Z,6.10
2017-11-06T01:43:08.024Z,6.10
2017-11-06T01:45:36.954Z,6.10
2017-11-06T01:48:05.873Z,6.10
2017-11-06T01:50:33.990Z,6.10
2017-11-06T01:53:02.122Z,6.10
2017-11-06T01:55:31.029Z,6.10
2017-11-06T01:57:59.924Z,6.10
2017-11-06T02:00:28.062Z,6.10
2017-11-06T02:02:56.194Z,6.10
2017-11-06T02:05:24.320Z,6.20
2017-11-06T02:07:53.242Z,6.10
2017-11-06T02:10:21.364Z,6.20
2017-11-06T02:12:49.505Z,6.20
2017-11-06T02:15:20.526Z,6.20
2017-11-06T02:17:48.668Z,6.20
2017-11-06T02:20:17.554Z,6.10
2017-11-06T02:22:46.458Z,6.10
2017-11-06T02:25:15.354Z,6.10
2017-11-06T02:27:43.490Z,6.10
2017-11-06T02:30:11.627Z,6.10
2017-11-06T02:32:39.759Z,6.00
2017-11-06T02:35:08.638Z,6.00
2017-11-06T02:37:37.537Z,5.90
2017-11-06T02:40:06.423Z,5.90
2017-11-06T02:42:35.323Z,5.90
2017-11-06T02:45:04.240Z,5.90
2017-11-06T02:47:32.370Z,5.80
2017-11-06T02:50:00.511Z,5.90
2017-11-06T02:52:28.643Z,5.90
2017-11-06T02:54:57.553Z,6.00
2017-11-06T02:57:25.662Z,6.00
2017-11-06T02:59:53.782Z,6.00
2017-11-06T03:02:21.922Z,6.00
2017-11-06T03:04:50.049Z,6.00
2017-11-06T03:07:18.204Z,5.90
2017-11-06T03:09:46.319Z,5.90
2017-11-06T03:12:14.466Z,6.00
2017-11-06T03:14:42.602Z,6.00
2017-11-06T03:17:11.483Z,6.00
2017-11-06T03:19:40.440Z,6.00
2017-11-06T03:22:08.560Z,6.00
2017-11-06T03:24:36.684Z,6.00
2017-11-06T03:27:04.817Z,6.00
2017-11-06T03:29:32.940Z,6.00
2017-11-06T03:32:01.090Z,6.00
2017-11-06T03:34:29.235Z,6.00
2017-11-06T03:36:57.354Z,6.00
2017-11-06T03:39:25.496Z,6.00
2017-11-06T03:41:53.640Z,6.10
2017-11-06T03:44:21.792Z,6.10
2017-11-06T03:46:50.659Z,6.10
2017-11-06T03:49:18.795Z,6.10
2017-11-06T03:51:46.940Z,6.20
2017-11-06T03:54:15.094Z,6.20
2017-11-06T03:56:44.006Z,6.20
2017-11-06T03:59:12.123Z,6.20
2017-11-06T04:01:40.269Z,6.20
2017-11-06T04:04:08.387Z,6.20
2017-11-06T04:06:36.520Z,6.20
2017-11-06T04:09:04.654Z,6.20
2017-11-06T04:11:33.544Z,6.10
2017-11-06T04:14:02.430Z,6.00
2017-11-06T04:16:31.352Z,6.00
2017-11-06T04:18:59.475Z,6.00
2017-11-06T04:21:27.648Z,6.00
2017-11-06T04:23:55.769Z,6.00
2017-11-06T04:26:23.896Z,6.00
2017-11-06T04:28:52.021Z,6.00
2017-11-06T04:31:20.144Z,6.00
2017-11-06T04:33:51.791Z,6.00
2017-11-06T04:36:19.904Z,6.00
2017-11-06T04:38:48.040Z,6.00
2017-11-06T04:41:16.167Z,6.00
2017-11-06T04:43:44.294Z,6.00
2017-11-06T04:46:13.327Z,6.10
2017-11-06T04:48:41.446Z,6.10
2017-11-06T04:51:09.576Z,6.10
2017-11-06T04:53:37.707Z,6.20
2017-11-06T04:56:06.731Z,6.20
2017-11-06T04:58:34.845Z,6.20
2017-11-06T05:01:02.958Z,6.30
2017-11-06T05:03:31.096Z,6.30
2017-11-06T05:05:59.215Z,6.30
2017-11-06T05:08:27.354Z,6.30
2017-11-06T05:10:56.258Z,6.20
2017-11-06T05:13:24.378Z,6.20
2017-11-06T05:15:53.277Z,6.30
2017-11-06T05:18:21.397Z,6.20
2017-11-06T05:20:50.315Z,6.30
2017-11-06T05:23:18.428Z,6.20
2017-11-06T05:25:46.544Z,6.30
2017-11-06T05:28:14.678Z,6.20
2017-11-06T05:30:43.573Z,6.30
2017-11-06T05:33:12.477Z,6.30
2017-11-06T05:35:41.364Z,6.20
2017-11-06T05:38:10.252Z,6.20
2017-11-06T05:40:39.155Z,6.30
2017-11-06T05:43:07.288Z,6.30
2017-11-06T05:45:35.485Z,6.30
2017-11-06T05:48:04.387Z,6.20
2017-11-06T05:50:32.514Z,6.20
2017-11-06T05:53:00.682Z,6.20
2017-11-06T05:55:28.801Z,6.20
2017-11-06T05:57:56.946Z,6.20
2017-11-06T06:00:25.069Z,6.30
2017-11-06T06:02:53.194Z,6.20
2017-11-06T06:05:22.097Z,6.20
2017-11-06T06:07:50.989Z,6.10
2017-11-06T06:10:19.904Z,6.10
2017-11-06T06:12:48.021Z,6.10
2017-11-06T06:15:16.150Z,6.10
2017-11-06T06:17:44.275Z,6.10
2017-11-06T06:20:12.417Z,6.10
2017-11-06T06:22:40.555Z,6.10
2017-11-06T06:25:08.681Z,6.10
2017-11-06T06:27:36.803Z,6.00
2017-11-06T06:30:04.936Z,6.00
2017-11-06T06:32:33.068Z,6.00
2017-11-06T06:35:01.212Z,5.90
2017-11-06T06:37:30.108Z,5.90
2017-11-06T06:39:58.230Z,5.90
2017-11-06T06:42:26.373Z,5.90
2017-11-06T06:44:54.496Z,5.90
2017-11-06T06:47:23.415Z,5.90
2017-11-06T06:49:51.571Z,5.80
2017-11-06T06:52:19.671Z,5.90
2017-11-06T06:54:47.816Z,5.80
2017-11-06T06:57:15.932Z,5.80
2017-11-06T06:59:44.074Z,5.80
2017-11-06T07:02:12.212Z,5.90
2017-11-06T07:04:40.333Z,5.90
2017-11-06T07:07:08.483Z,5.90
2017-11-06T07:09:36.598Z,6.00
2017-11-06T07:12:04.745Z,6.00
2017-11-06T07:14:32.892Z,6.00
2017-11-06T07:17:01.013Z,6.00
2017-11-06T07:19:29.164Z,6.00
2017-11-06T07:21:57.271Z,6.10
2017-11-06T07:24:25.408Z,6.10
2017-11-06T07:26:53.527Z,6.10
2017-11-06T07:29:21.685Z,6.00
2017-11-06T07:31:49.806Z,6.00
2017-11-06T07:34:18.689Z,5.90
2017-11-06T07:36:47.576Z,6.00
2017-11-06T07:39:15.710Z,5.90
2017-11-06T07:41:43.847Z,6.00
2017-11-06T07:44:12.007Z,6.00
2017-11-06T07:46:40.879Z,6.00
2017-11-06T07:49:09.762Z,6.00
2017-11-06T07:51:38.650Z,6.00
2017-11-06T07:54:06.787Z,6.00
2017-11-06T07:56:34.903Z,6.00
2017-11-06T07:59:03.788Z,5.90
2017-11-06T08:01:32.714Z,5.90
2017-11-06T08:04:00.826Z,5.90
2017-11-06T08:06:28.978Z,5.90
2017-11-06T08:08:57.102Z,6.00
2017-11-06T08:11:25.235Z,6.00
2017-11-06T08:13:53.369Z,6.00
2017-11-06T08:16:21.484Z,6.10
2017-11-06T08:18:49.599Z,6.00
2017-11-06T08:21:17.746Z,6.00
2017-11-06T08:23:46.638Z,6.00
2017-11-06T08:26:15.550Z,5.90
2017-11-06T08:28:43.675Z,5.90
2017-11-06T08:31:11.806Z,5.90
2017-11-06T08:33:39.936Z,6.00
2017-11-06T08:36:08.826Z,5.90
2017-11-06T08:38:36.974Z,5.90
2017-11-06T08:41:05.115Z,5.90
2017-11-06T08:43:33.239Z,5.90
2017-11-06T08:46:01.389Z,6.00
2017-11-06T08:48:29.498Z,6.00
2017-11-06T08:50:58.405Z,6.00
2017-11-06T08:53:26.560Z,6.00
2017-11-06T08:55:55.451Z,6.10
2017-11-06T08:58:23.769Z,6.10
2017-11-06T09:00:51.888Z,6.10
2017-11-06T09:03:20.041Z,6.10
2017-11-06T09:05:48.181Z,6.10
2017-11-06T09:08:16.293Z,6.10
2017-11-06T09:10:44.439Z,6.10
2017-11-06T09:13:12.569Z,6.20
2017-11-06T09:15:41.457Z,6.30
2017-11-06T09:18:09.603Z,6.30
2017-11-06T09:20:37.731Z,6.40
2017-11-06T09:23:05.874Z,6.40
2017-11-06T09:25:34.761Z,6.50
2017-11-06T09:28:03.671Z,6.40
2017-11-06T09:30:31.803Z,6.40
2017-11-06T09:32:59.950Z,6.40
2017-11-06T09:35:28.070Z,6.40
2017-11-06T09:37:56.238Z,6.40
2017-11-06T09:40:25.405Z,6.40
2017-11-06T09:42:53.518Z,6.40
2017-11-06T09:45:21.648Z,6.30
2017-11-06T09:47:49.775Z,6.30
2017-11-06T09:50:17.903Z,6.40
2017-11-06T09:52:46.045Z,6.40
2017-11-06T09:55:14.205Z,6.40
2017-11-06T09:57:42.307Z,6.50
2017-11-06T10:00:10.453Z,6.60
2017-11-06T10:02:38.584Z,6.50
2017-11-06T10:05:07.489Z,6.40
2017-11-06T10:07:35.605Z,6.40
2017-11-06T10:10:03.719Z,6.30
2017-11-06T10:12:32.641Z,6.40
2017-11-06T10:15:00.763Z,6.30
2017-11-06T10:17:28.915Z,6.40
2017-11-06T10:19:57.027Z,6.40
2017-11-06T10:22:25.915Z,6.50
2017-11-06T10:24:54.937Z,6.50
2017-11-06T10:27:23.030Z,6.50
2017-11-06T10:29:51.228Z,6.60
2017-11-06T10:32:19.348Z,6.60
2017-11-06T10:34:47.461Z,6.60
2017-11-06T10:37:15.607Z,6.60
2017-11-06T10:39:44.663Z,6.60
2017-11-06T10:42:13.559Z,6.80
2017-11-06T10:44:41.673Z,6.80
2017-11-06T10:47:09.787Z,6.90
2017-11-06T10:49:38.693Z,7.00
2017-11-06T10:52:06.838Z,7.00
2017-11-06T10:54:35.032Z,7.00
2017-11-06T10:57:03.927Z,7.00
2017-11-06T10:59:33.800Z,7.10
2017-11-06T11:02:01.939Z,7.10
2017-11-06T11:04:30.059Z,7.20
2017-11-06T11:06:58.190Z,7.30
2017-11-06T11:09:26.327Z,7.30
2017-11-06T11:11:55.200Z,7.30
2017-11-06T11:14:24.109Z,7.30
2017-11-06T11:16:52.274Z,7.20
2017-11-06T11:19:21.182Z,7.20
2017-11-06T11:21:50.164Z,7.20
2017-11-06T11:24:18.300Z,7.20
2017-11-06T11:26:46.425Z,7.20
2017-11-06T11:29:14.575Z,7.20
2017-11-06T11:31:43.484Z,7.20
2017-11-06T11:34:11.763Z,7.20
2017-11-06T11:36:39.915Z,7.20
2017-11-06T11:39:08.820Z,7.30
2017-11-06T11:41:36.974Z,7.30
2017-11-06T11:44:05.864Z,7.50
2017-11-06T11:46:34.010Z,7.40
2017-11-06T11:49:02.125Z,7.60
2017-11-06T11:51:30.280Z,7.70
2017-11-06T11:53:59.172Z,7.80
2017-11-06T11:56:28.085Z,7.90
2017-11-06T11:58:56.207Z,7.80
2017-11-06T12:01:24.332Z,8.00
2017-11-06T12:03:52.460Z,8.00
2017-11-06T12:06:20.619Z,8.00
2017-11-06T12:08:48.841Z,7.90
2017-11-06T12:11:16.960Z,7.90
2017-11-06T12:13:45.085Z,7.80
2017-11-06T12:16:13.224Z,7.80
2017-11-06T12:18:41.337Z,7.70
2017-11-06T12:21:09.489Z,7.70
2017-11-06T12:23:38.371Z,7.60
2017-11-06T12:26:07.268Z,7.50
2017-11-06T12:28:36.157Z,7.30
2017-11-06T12:31:04.297Z,7.30
2017-11-06T12:33:32.443Z,7.30
2017-11-06T12:36:00.588Z,7.30
2017-11-06T12:38:29.471Z,7.20
2017-11-06T12:40:57.605Z,7.20
2017-11-06T12:43:25.713Z,7.20
2017-11-06T12:45:53.916Z,7.20
2017-11-06T12:48:22.028Z,7.20
2017-11-06T12:50:50.928Z,7.30
2017-11-06T12:53:19.850Z,7.30
2017-11-06T12:55:47.978Z,7.30
2017-11-06T12:58:16.120Z,7.20
2017-11-06T13:00:44.650Z,7.30
2017-11-06T13:03:29.982Z,7.20
2017-11-06T13:09:03.056Z,7.20
2017-11-06T13:11:50.928Z,7.20
2017-11-06T13:14:41.956Z,7.00
2017-11-06T13:17:21.489Z,6.90
2017-11-06T13:19:51.457Z,6.90
2017-11-06T13:22:19.581Z,6.90
2017-11-06T13:24:47.713Z,6.90
2017-11-06T13:27:15.842Z,6.90
2017-11-06T13:29:44.747Z,6.90
2017-11-06T13:32:12.906Z,6.90
2017-11-06T13:34:41.805Z,7.00
2017-11-06T13:37:10.710Z,7.00
2017-11-06T13:39:38.851Z,7.00
2017-11-06T13:42:07.740Z,7.10
2017-11-06T13:44:36.645Z,7.10
2017-11-06T13:47:05.538Z,7.10
2017-11-06T13:49:34.441Z,7.10
2017-11-06T13:52:02.572Z,7.10
2017-11-06T13:54:30.697Z,7.10
2017-11-06T13:56:58.850Z,7.10
2017-11-06T13:59:27.739Z,7.20
2017-11-06T14:01:55.859Z,7.10
2017-11-06T14:04:23.991Z,7.10
2017-11-06T14:06:52.120Z,7.10
2017-11-06T14:09:20.265Z,7.10
2017-11-06T14:11:48.393Z,7.10
2017-11-06T14:14:17.280Z,7.10
2017-11-06T14:16:46.169Z,7.00
2017-11-06T14:19:15.065Z,7.00
2017-11-06T14:21:43.958Z,7.00
2017-11-06T14:24:12.081Z,7.00
2017-11-06T14:26:40.233Z,7.00
2017-11-06T14:29:08.355Z,6.90
2017-11-06T14:31:37.231Z,7.00
2017-11-06T14:34:05.388Z,6.90
2017-11-06T14:36:33.508Z,6.90
2017-11-06T14:39:02.375Z,6.90
2017-11-06T14:41:31.305Z,6.90
2017-11-06T14:43:59.427Z,6.90
2017-11-06T14:46:27.561Z,6.90
2017-11-06T14:48:55.661Z,6.90
2017-11-06T14:51:25.286Z,6.90
2017-11-06T14:53:53.503Z,6.90
2017-11-06T14:56:21.614Z,6.80
2017-11-06T14:58:49.865Z,6.90
2017-11-06T15:01:17.965Z,6.80
2017-11-06T15:03:46.106Z,6.80
2017-11-06T15:06:14.331Z,6.80
2017-11-06T15:08:43.221Z,6.80
2017-11-06T15:11:12.113Z,6.80
2017-11-06T15:13:41.011Z,6.80
2017-11-06T15:16:09.908Z,6.70
2017-11-06T15:18:38.797Z,6.70
2017-11-06T15:21:06.919Z,6.70
2017-11-06T15:23:35.100Z,6.70
2017-11-06T15:26:03.227Z,6.70
2017-11-06T15:28:31.349Z,6.70
2017-11-06T15:30:59.504Z,6.60
2017-11-06T15:33:27.615Z,6.60
2017-11-06T15:35:56.550Z,6.60
2017-11-06T15:38:24.662Z,6.60
2017-11-06T15:40:52.788Z,6.60
2017-11-06T15:43:20.923Z,6.60
2017-11-06T15:45:49.815Z,6.60
2017-11-06T15:48:18.718Z,6.70
2017-11-06T15:50:46.825Z,6.60
2017-11-06T15:53:14.954Z,6.70
2017-11-06T15:55:43.855Z,6.60
2017-11-06T15:58:11.990Z,6.60
2017-11-06T16:00:40.134Z,6.60
2017-11-06T16:03:08.257Z,6.60
2017-11-06T16:05:37.136Z,6.60
2017-11-06T16:08:06.086Z,6.60
2017-11-06T16:10:34.217Z,6.60
2017-11-06T16:13:03.117Z,6.60
2017-11-06T16:15:31.245Z,6.60
2017-11-06T16:17:59.381Z,6.60
2017-11-06T16:20:27.511Z,6.60
2017-11-06T16:22:56.394Z,6.60
2017-11-06T16:25:25.299Z,6.60
2017-11-06T16:27:54.198Z,6.60
2017-11-06T16:30:22.339Z,6.60
2017-11-06T16:32:51.073Z,6.70
2017-11-06T16:35:19.944Z,6.70
2017-11-06T16:37:48.073Z,6.60
2017-11-06T16:40:16.203Z,6.60
2017-11-06T16:42:44.340Z,6.60
2017-11-06T16:45:13.291Z,6.60
2017-11-06T16:47:41.414Z,6.60
2017-11-06T16:50:10.343Z,6.60
2017-11-06T16:52:38.460Z,6.60
2017-11-06T16:55:06.583Z,6.60
2017-11-06T16:57:34.727Z,6.60
2017-11-06T17:00:04.556Z,6.60
2017-11-06T17:02:32.685Z,6.60
2017-11-06T17:05:00.815Z,6.60
2017-11-06T17:07:28.950Z,6.60
2017-11-06T17:09:57.853Z,6.50
2017-11-06T17:12:26.038Z,6.50
2017-11-06T17:14:55.817Z,6.60
2017-11-06T17:17:25.365Z,6.60
2017-11-06T17:19:53.507Z,6.60
2017-11-06T17:22:22.398Z,6.60
2017-11-06T17:24:50.564Z,6.60
2017-11-06T17:27:18.757Z,6.60
2017-11-06T17:29:46.877Z,6.60
2017-11-06T17:32:15.069Z,6.60
2017-11-06T17:34:43.988Z,6.60
2017-11-06T17:37:12.111Z,6.60
2017-11-06T17:39:40.244Z,6.60
2017-11-06T17:42:08.404Z,6.70
2017-11-06T17:44:36.510Z,6.70
2017-11-06T17:47:04.658Z,6.70
2017-11-06T17:49:32.802Z,6.70
2017-11-06T17:52:00.932Z,6.70
2017-11-06T17:54:29.052Z,6.70
2017-11-06T17:56:57.996Z,6.70
2017-11-06T17:59:26.118Z,6.70
2017-11-06T18:01:54.991Z,6.70
2017-11-06T18:04:23.917Z,6.70
2017-11-06T18:06:52.027Z,6.70
2017-11-06T18:09:20.158Z,6.70
2017-11-06T18:11:48.308Z,6.70
2017-11-06T18:14:17.211Z,6.70
2017-11-06T18:16:45.349Z,6.70
2017-11-06T18:19:13.505Z,6.70
2017-11-06T18:21:41.647Z,6.70
2017-11-06T18:24:09.769Z,6.70
2017-11-06T18:26:37.902Z,6.70
2017-11-06T18:29:06.026Z,6.70
2017-11-06T18:31:34.922Z,6.70
2017-11-06T18:34:03.098Z,6.70
2017-11-06T18:36:31.989Z,6.70
2017-11-06T18:39:00.166Z,6.70
2017-11-06T18:41:29.050Z,6.70
2017-11-06T18:43:57.949Z,6.60
2017-11-06T18:46:26.131Z,6.60
2017-11-06T18:48:55.046Z,6.60
2017-11-06T18:51:23.190Z,6.60
2017-11-06T18:53:51.330Z,6.70
2017-11-06T18:56:20.473Z,6.70
2017-11-06T18:58:48.609Z,6.70
2017-11-06T19:01:17.524Z,6.70
2017-11-06T19:03:45.667Z,6.60
2017-11-06T19:06:14.962Z,6.60
2017-11-06T19:08:43.094Z,6.60
2017-11-06T19:11:11.222Z,6.70
2017-11-06T19:13:39.811Z,6.70
2017-11-06T19:16:07.982Z,6.70
2017-11-06T19:18:36.848Z,6.70
2017-11-06T19:21:05.775Z,6.70
2017-11-06T19:23:33.923Z,6.70
2017-11-06T19:26:02.850Z,6.70
2017-11-06T19:28:31.081Z,6.70
2017-11-06T19:31:00.045Z,6.70
2017-11-06T19:33:28.240Z,6.70
2017-11-06T19:35:56.526Z,6.70
2017-11-06T19:38:26.195Z,6.70
2017-11-06T19:40:54.420Z,6.70
2017-11-06T19:43:23.321Z,6.70
2017-11-06T19:45:51.473Z,6.70
2017-11-06T19:48:19.635Z,6.70
2017-11-06T19:50:47.760Z,6.70
2017-11-06T19:53:15.933Z,6.70
2017-11-06T19:55:44.077Z,6.70
2017-11-06T19:58:12.259Z,6.70
2017-11-06T20:00:40.400Z,6.70
2017-11-06T20:03:09.319Z,6.70
2017-11-06T20:05:37.469Z,6.70
2017-11-06T20:08:06.429Z,6.70
2017-11-06T20:10:34.566Z,6.70
2017-11-06T20:13:02.712Z,6.70
2017-11-06T20:15:31.737Z,6.70
2017-11-06T20:17:59.894Z,6.70
2017-11-06T20:20:28.052Z,6.70
2017-11-06T20:22:56.954Z,6.70
2017-11-06T20:25:25.134Z,6.70
2017-11-06T20:27:53.362Z,6.70
2017-11-06T20:30:21.530Z,6.70
2017-11-06T20:32:55.174Z,6.70
2017-11-06T20:35:23.332Z,6.70
2017-11-06T20:37:53.073Z,6.70
2017-11-06T20:40:21.303Z,6.70
2017-11-06T20:42:49.492Z,6.70
2017-11-06T20:45:18.417Z,6.70
2017-11-06T20:47:46.585Z,6.60
2017-11-06T20:50:15.647Z,6.70
2017-11-06T20:52:44.583Z,6.70
2017-11-06T20:55:12.719Z,6.70
2017-11-06T20:57:40.997Z,6.70
2017-11-06T21:00:09.189Z,6.70
2017-11-06T21:02:37.363Z,6.70
2017-11-06T21:05:05.494Z,6.70
2017-11-06T21:07:33.652Z,6.70
2017-11-06T21:10:01.827Z,6.70
2017-11-06T21:12:29.989Z,6.70
2017-11-06T21:14:58.124Z,6.70
2017-11-06T21:17:26.377Z,6.70
2017-11-06T21:19:55.284Z,6.70
2017-11-06T21:22:23.520Z,6.70
2017-11-06T21:24:51.691Z,6.70
2017-11-06T21:27:19.855Z,6.70
2017-11-06T21:29:53.757Z,6.60
2017-11-06T21:32:21.951Z,6.70
2017-11-06T21:34:50.125Z,6.60
2017-11-06T21:37:18.270Z,6.60
2017-11-06T21:39:46.486Z,6.60
2017-11-06T21:42:14.642Z,6.60
2017-11-06T21:44:43.943Z,6.50
2017-11-06T21:47:13.581Z,6.50
2017-11-06T21:49:41.700Z,6.50
2017-11-06T21:52:09.852Z,6.50
2017-11-06T21:54:37.985Z,6.50
2017-11-06T21:57:07.044Z,6.40
2017-11-06T21:59:35.220Z,6.50
2017-11-06T22:02:03.373Z,6.40
2017-11-06T22:04:31.615Z,6.50
2017-11-06T22:06:59.796Z,6.40
2017-11-06T22:09:27.912Z,6.50
2017-11-06T22:11:56.112Z,6.40
2017-11-06T22:14:25.002Z,6.50
2017-11-06T22:16:54.072Z,6.50
2017-11-06T22:19:23.735Z,6.50
2017-11-06T22:21:51.871Z,6.50
2017-11-06T22:24:20.045Z,6.50
2017-11-06T22:26:48.942Z,6.50
2017-11-06T22:29:17.103Z,6.50
2017-11-06T22:31:45.997Z,6.50
2017-11-06T22:34:14.898Z,6.50
2017-11-06T22:36:43.801Z,6.50
2017-11-06T22:39:11.952Z,6.50
2017-11-06T22:41:40.847Z,6.50
2017-11-06T22:44:09.767Z,6.50
2017-11-06T22:46:50.526Z,6.50
2017-11-06T22:49:18.704Z,6.50
2017-11-06T22:51:46.801Z,6.50
2017-11-06T22:54:14.926Z,6.50
2017-11-06T22:56:43.079Z,6.50
2017-11-06T22:59:12.059Z,6.50
2017-11-06T23:01:40.243Z,6.40
2017-11-06T23:04:08.412Z,6.40
2017-11-06T23:06:36.576Z,6.40
2017-11-06T23:09:04.721Z,6.40
2017-11-06T23:11:32.857Z,6.40
2017-11-06T23:14:01.094Z,6.40
2017-11-06T23:16:29.220Z,6.40
2017-11-06T23:18:57.418Z,6.40
2017-11-06T23:21:25.555Z,6.40
2017-11-06T23:23:53.699Z,6.50
2017-11-06T23:26:22.620Z,6.40
2017-11-06T23:28:50.736Z,6.40
2017-11-06T23:31:18.842Z,6.50
2017-11-06T23:33:47.880Z,6.50
2017-11-06T23:36:16.110Z,6.50
2017-11-06T23:38:45.111Z,6.50
2017-11-06T23:41:14.026Z,6.60
2017-11-06T23:43:43.130Z,6.50
2017-11-06T23:46:12.047Z,6.50
2017-11-06T23:48:40.176Z,6.50
2017-11-06T23:51:08.272Z,6.50
2017-11-06T23:53:36.439Z,6.50
2017-11-06T23:56:04.590Z,6.50
2017-11-06T23:58:32.748Z,6.50
